createdAt,value
2022-11-24T00:02:19.080Z,7.07
2022-11-24T00:04:45.707Z,7.09
2022-11-24T00:07:12.416Z,7.14
2022-11-24T00:09:38.989Z,7.18
2022-11-24T00:12:05.585Z,7.21
2022-11-24T00:14:32.375Z,7.22
2022-11-24T00:16:59.090Z,7.21
2022-11-24T00:19:26.134Z,7.18
2022-11-24T00:21:53.000Z,7.21
2022-11-24T00:24:19.546Z,7.27
2022-11-24T00:26:46.236Z,7.30
2022-11-24T00:29:12.850Z,7.28
2022-11-24T00:31:43.534Z,7.27
2022-11-24T00:34:13.805Z,7.24
2022-11-24T00:36:41.537Z,7.23
2022-11-24T00:39:11.991Z,7.21
2022-11-24T00:41:39.037Z,7.20
2022-11-24T00:44:05.878Z,7.22
2022-11-24T00:46:32.805Z,7.24
2022-11-24T00:49:00.725Z,7.23
2022-11-24T00:51:29.775Z,7.22
2022-11-24T00:53:58.824Z,7.20
2022-11-24T00:56:26.569Z,7.17
2022-11-24T00:58:53.187Z,7.18
2022-11-24T01:01:23.222Z,7.18
2022-11-24T01:03:50.533Z,7.16
2022-11-24T01:06:19.978Z,7.14
2022-11-24T01:08:47.295Z,7.17
2022-11-24T01:11:17.945Z,7.18
2022-11-24T01:13:46.633Z,7.20
2022-11-24T01:16:15.414Z,7.22
2022-11-24T01:18:42.136Z,7.25
2022-11-24T01:21:10.414Z,7.26
2022-11-24T01:23:37.598Z,7.23
2022-11-24T01:26:06.346Z,7.20
2022-11-24T01:28:33.284Z,7.19
2022-11-24T01:31:01.562Z,7.14
2022-11-24T01:33:28.547Z,7.13
2022-11-24T01:35:55.309Z,7.14
2022-11-24T01:38:21.947Z,7.13
2022-11-24T01:40:48.785Z,7.09
2022-11-24T01:43:18.021Z,7.09
2022-11-24T01:45:45.456Z,7.09
2022-11-24T01:48:24.459Z,7.06
2022-11-24T01:51:06.049Z,7.13
2022-11-24T01:53:32.682Z,7.11
2022-11-24T01:55:59.580Z,7.11
2022-11-24T01:58:31.324Z,7.11
2022-11-24T02:00:57.969Z,7.12
2022-11-24T02:03:32.499Z,7.10
2022-11-24T02:06:03.856Z,7.13
2022-11-24T02:08:44.046Z,7.14
2022-11-24T02:11:10.588Z,7.15
2022-11-24T02:13:39.852Z,7.17
2022-11-24T02:16:10.406Z,7.17
2022-11-24T02:18:39.002Z,7.15
2022-11-24T02:21:06.543Z,7.21
2022-11-24T02:23:41.110Z,7.25
2022-11-24T02:26:27.402Z,7.27
2022-11-24T02:28:54.162Z,7.33
2022-11-24T02:31:20.729Z,7.36
2022-11-24T02:33:50.092Z,7.37
2022-11-24T02:36:17.895Z,7.36
2022-11-24T02:38:44.560Z,7.40
2022-11-24T02:41:16.910Z,7.41
2022-11-24T02:43:48.693Z,7.42
2022-11-24T02:46:15.391Z,7.41
2022-11-24T02:48:41.941Z,7.41
2022-11-24T02:51:08.698Z,7.43
2022-11-24T02:53:35.431Z,7.44
2022-11-24T02:56:02.029Z,7.44
2022-11-24T02:58:28.615Z,7.44
2022-11-24T03:00:55.260Z,7.49
2022-11-24T03:03:22.147Z,7.51
2022-11-24T03:05:48.780Z,7.54
2022-11-24T03:08:15.403Z,7.51
2022-11-24T03:10:42.409Z,7.52
2022-11-24T03:13:09.004Z,7.53
2022-11-24T03:15:36.393Z,7.52
2022-11-24T03:18:03.078Z,7.48
2022-11-24T03:20:30.117Z,7.47
2022-11-24T03:22:56.970Z,7.45
2022-11-24T03:25:23.626Z,7.44
2022-11-24T03:27:50.217Z,7.44
2022-11-24T03:30:16.876Z,7.45
2022-11-24T03:32:43.502Z,7.48
2022-11-24T03:35:10.068Z,7.51
2022-11-24T03:37:37.294Z,7.53
2022-11-24T03:40:04.255Z,7.53
2022-11-24T03:42:30.797Z,7.53
2022-11-24T03:44:57.341Z,7.52
2022-11-24T03:47:23.904Z,7.53
2022-11-24T03:49:50.486Z,7.56
2022-11-24T03:52:17.049Z,7.57
2022-11-24T03:54:43.667Z,7.56
2022-11-24T03:57:10.291Z,7.56
2022-11-24T03:59:36.873Z,7.53
2022-11-24T04:02:03.529Z,7.55
2022-11-24T04:04:30.205Z,7.52
2022-11-24T04:06:56.960Z,7.52
2022-11-24T04:09:23.533Z,7.51
2022-11-24T04:12:10.571Z,7.48
2022-11-24T04:14:37.408Z,7.49
2022-11-24T04:17:04.314Z,7.49
2022-11-24T04:19:31.156Z,7.50
2022-11-24T04:21:57.716Z,7.53
2022-11-24T04:24:24.307Z,7.58
2022-11-24T04:26:50.750Z,7.59
2022-11-24T04:29:17.242Z,7.59
2022-11-24T04:31:43.811Z,7.61
2022-11-24T04:34:11.284Z,7.62
2022-11-24T04:36:37.773Z,7.63
2022-11-24T04:39:19.938Z,7.64
2022-11-24T04:41:50.734Z,7.66
2022-11-24T04:44:17.328Z,7.68
2022-11-24T04:46:43.943Z,7.68
2022-11-24T04:49:11.789Z,7.65
2022-11-24T04:51:40.279Z,7.65
2022-11-24T04:54:07.478Z,7.66
2022-11-24T04:56:34.437Z,7.69
2022-11-24T04:59:06.656Z,7.69
2022-11-24T05:01:34.703Z,7.69
2022-11-24T05:04:01.252Z,7.71
2022-11-24T05:06:27.808Z,7.73
2022-11-24T05:08:54.754Z,7.73
2022-11-24T05:11:21.250Z,7.74
2022-11-24T05:13:47.788Z,7.74
2022-11-24T05:16:14.402Z,7.75
2022-11-24T05:18:41.166Z,7.78
2022-11-24T05:21:07.761Z,7.76
2022-11-24T05:23:34.261Z,7.77
2022-11-24T05:26:01.571Z,7.76
2022-11-24T05:28:28.715Z,7.74
2022-11-24T05:30:59.213Z,7.71
2022-11-24T05:33:28.554Z,7.70
2022-11-24T05:35:55.184Z,7.68
2022-11-24T05:38:23.764Z,7.66
2022-11-24T05:40:50.263Z,7.64
2022-11-24T05:43:17.099Z,7.62
2022-11-24T05:45:44.545Z,7.60
2022-11-24T05:48:13.767Z,7.57
2022-11-24T05:50:40.536Z,7.54
2022-11-24T05:53:10.268Z,7.53
2022-11-24T05:55:37.515Z,7.51
2022-11-24T05:58:06.582Z,7.49
2022-11-24T06:00:34.859Z,7.49
2022-11-24T06:03:01.963Z,7.48
2022-11-24T06:05:29.458Z,7.47
2022-11-24T06:07:56.362Z,7.49
2022-11-24T06:10:24.585Z,7.49
2022-11-24T06:12:51.598Z,7.50
2022-11-24T06:15:18.413Z,7.49
2022-11-24T06:17:45.077Z,7.48
2022-11-24T06:20:12.851Z,7.49
2022-11-24T06:22:39.448Z,7.52
2022-11-24T06:25:06.213Z,7.51
2022-11-24T06:27:32.762Z,7.53
2022-11-24T06:29:59.392Z,7.52
2022-11-24T06:32:26.006Z,7.51
2022-11-24T06:34:52.540Z,7.50
2022-11-24T06:37:19.171Z,7.49
2022-11-24T06:39:45.744Z,7.49
2022-11-24T06:42:12.379Z,7.48
2022-11-24T06:44:39.414Z,7.49
2022-11-24T06:47:05.933Z,7.49
2022-11-24T06:49:32.479Z,7.49
2022-11-24T06:51:59.038Z,7.51
2022-11-24T06:54:25.604Z,7.46
2022-11-24T06:56:57.383Z,7.46
2022-11-24T06:59:23.914Z,7.42
2022-11-24T07:01:52.534Z,7.37
2022-11-24T07:04:19.558Z,7.35
2022-11-24T07:06:46.511Z,7.31
2022-11-24T07:09:14.285Z,7.30
2022-11-24T07:11:41.442Z,7.30
2022-11-24T07:14:08.382Z,7.30
2022-11-24T07:16:34.953Z,7.27
2022-11-24T07:19:02.050Z,7.27
2022-11-24T07:21:30.586Z,7.24
2022-11-24T07:23:57.877Z,7.24
2022-11-24T07:26:25.868Z,7.25
2022-11-24T07:28:52.708Z,7.28
2022-11-24T07:31:21.645Z,7.31
2022-11-24T07:33:50.220Z,7.30
2022-11-24T07:36:16.984Z,7.33
2022-11-24T07:38:43.533Z,7.35
2022-11-24T07:41:11.960Z,7.35
2022-11-24T07:43:38.996Z,7.37
2022-11-24T07:46:07.528Z,7.37
2022-11-24T07:48:34.604Z,7.41
2022-11-24T07:51:02.500Z,7.40
2022-11-24T07:53:29.227Z,7.43
2022-11-24T07:55:58.189Z,7.45
2022-11-24T07:58:28.881Z,7.45
2022-11-24T08:00:59.027Z,7.45
2022-11-24T08:03:25.806Z,7.45
2022-11-24T08:08:45.341Z,7.49
2022-11-24T08:11:14.443Z,7.49
2022-11-24T08:13:41.296Z,7.49
2022-11-24T08:16:11.364Z,7.53
2022-11-24T08:18:38.890Z,7.53
2022-11-24T08:21:06.761Z,7.56
2022-11-24T08:23:35.035Z,7.60
2022-11-24T08:26:08.897Z,7.63
2022-11-24T08:28:35.663Z,7.64
2022-11-24T08:31:04.910Z,7.64
2022-11-24T08:33:31.843Z,7.65
2022-11-24T08:36:04.409Z,7.64
2022-11-24T08:38:30.971Z,7.63
2022-11-24T08:41:03.561Z,7.66
2022-11-24T08:43:30.541Z,7.71
2022-11-24T08:46:08.273Z,7.73
2022-11-24T08:48:35.792Z,7.78
2022-11-24T08:51:09.098Z,7.78
2022-11-24T08:53:35.744Z,7.78
2022-11-24T08:56:03.876Z,7.78
2022-11-24T08:58:31.345Z,7.75
2022-11-24T09:01:06.627Z,7.75
2022-11-24T09:03:34.518Z,7.72
2022-11-24T09:06:02.369Z,7.72
2022-11-24T09:08:30.912Z,7.69
2022-11-24T09:11:02.124Z,7.67
2022-11-24T09:13:28.867Z,7.67
2022-11-24T09:15:56.406Z,7.67
2022-11-24T09:18:26.350Z,7.68
2022-11-24T09:21:06.965Z,7.70
2022-11-24T09:23:34.144Z,7.74
2022-11-24T09:26:11.230Z,7.76
2022-11-24T09:28:37.932Z,7.79
2022-11-24T09:31:07.821Z,7.84
2022-11-24T09:33:36.837Z,7.86
2022-11-24T09:36:04.264Z,7.90
2022-11-24T09:38:31.407Z,7.93
2022-11-24T09:41:15.234Z,7.96
2022-11-24T09:43:56.778Z,8.00
2022-11-24T09:46:27.607Z,8.03
2022-11-24T09:48:57.265Z,8.07
2022-11-24T09:51:28.765Z,8.09
2022-11-24T09:54:02.663Z,8.13
2022-11-24T09:56:33.324Z,8.16
2022-11-24T09:59:21.280Z,8.19
2022-11-24T10:01:48.985Z,8.23
2022-11-24T10:08:09.565Z,8.32
2022-11-24T10:11:00.145Z,8.35
2022-11-24T10:13:57.736Z,8.37
2022-11-24T10:17:07.743Z,8.40
2022-11-24T10:19:55.250Z,8.44
2022-11-24T10:22:46.583Z,8.49
2022-11-24T10:25:56.419Z,8.54
2022-11-24T10:29:21.435Z,8.55
2022-11-24T10:39:12.619Z,8.67
2022-11-24T10:42:00.686Z,8.68
2022-11-24T10:48:07.765Z,8.72
2022-11-24T10:50:38.136Z,8.73
2022-11-24T10:53:15.162Z,8.77
2022-11-24T10:56:00.902Z,8.79
2022-11-24T10:58:38.271Z,8.84
2022-11-24T11:01:14.441Z,8.89
2022-11-24T11:03:50.167Z,8.97
2022-11-24T11:06:29.734Z,8.99
2022-11-24T11:09:06.430Z,8.99
2022-11-24T11:11:34.324Z,8.98
2022-11-24T11:14:04.846Z,9.00
2022-11-24T11:16:36.334Z,9.01
2022-11-24T11:19:20.311Z,9.01
2022-11-24T11:22:02.950Z,9.02
2022-11-24T11:24:30.082Z,9.04
2022-11-24T11:27:03.328Z,9.07
2022-11-24T11:35:12.182Z,9.16
2022-11-24T11:37:38.825Z,9.18
2022-11-24T11:40:14.842Z,9.19
2022-11-24T11:43:02.474Z,9.21
2022-11-24T11:45:35.914Z,9.23
2022-11-24T11:48:02.937Z,9.24
2022-11-24T11:51:14.759Z,9.26
2022-11-24T11:53:36.909Z,9.29
2022-11-24T11:56:25.892Z,9.31
2022-11-24T11:59:12.873Z,9.34
2022-11-24T12:01:55.100Z,9.37
2022-11-24T12:04:29.083Z,9.38
2022-11-24T12:07:01.160Z,9.40
2022-11-24T12:09:45.987Z,9.40
2022-11-24T12:12:33.013Z,9.40
2022-11-24T12:15:10.541Z,9.41
2022-11-24T12:17:46.880Z,9.44
2022-11-24T12:20:46.643Z,9.46
2022-11-24T12:23:28.160Z,9.47
2022-11-24T12:26:25.270Z,9.49
2022-11-24T12:29:19.253Z,9.48
2022-11-24T12:32:09.816Z,9.50
2022-11-24T12:34:58.468Z,9.50
2022-11-24T12:37:52.844Z,9.50
2022-11-24T12:40:46.580Z,9.50
2022-11-24T12:43:23.066Z,9.50
2022-11-24T12:46:17.487Z,9.50
2022-11-24T12:49:10.139Z,9.50
2022-11-24T12:54:41.369Z,9.52
2022-11-24T12:57:25.325Z,9.53
2022-11-24T13:00:17.138Z,9.53
2022-11-24T13:03:04.179Z,9.55
2022-11-24T13:05:46.194Z,9.55
2022-11-24T13:08:29.625Z,9.56
2022-11-24T13:11:21.920Z,9.55
2022-11-24T13:14:05.560Z,9.52
2022-11-24T13:16:38.650Z,9.53
2022-11-24T13:19:22.095Z,9.54
2022-11-24T13:21:53.643Z,9.54
2022-11-24T13:24:26.558Z,9.54
2022-11-24T13:27:37.899Z,9.51
2022-11-24T13:30:36.743Z,9.50
2022-11-24T13:33:29.388Z,9.52
2022-11-24T13:36:32.235Z,9.51
2022-11-24T13:39:27.594Z,9.50
2022-11-24T13:41:52.359Z,9.52
2022-11-24T13:44:24.905Z,9.52
2022-11-24T13:47:04.813Z,9.50
2022-11-24T13:49:40.789Z,9.50
2022-11-24T13:52:36.278Z,9.50
2022-11-24T13:55:16.058Z,9.48
2022-11-24T13:58:52.339Z,9.47
2022-11-24T14:01:33.659Z,9.46
2022-11-24T14:04:33.551Z,9.47
2022-11-24T14:07:09.235Z,9.47
2022-11-24T14:09:42.119Z,9.46
2022-11-24T14:12:16.840Z,9.44
2022-11-24T14:14:45.037Z,9.43
2022-11-24T14:17:22.369Z,9.40
2022-11-24T14:19:51.559Z,9.38
2022-11-24T14:22:21.450Z,9.35
2022-11-24T14:24:58.898Z,9.33
2022-11-24T14:27:31.181Z,9.29
2022-11-24T14:30:01.490Z,9.29
2022-11-24T14:32:28.827Z,9.29
2022-11-24T14:34:58.911Z,9.28
2022-11-24T14:37:25.509Z,9.26
2022-11-24T14:39:52.113Z,9.24
2022-11-24T14:42:25.444Z,9.19
2022-11-24T14:44:56.437Z,9.15
2022-11-24T14:47:31.673Z,9.11
2022-11-24T14:50:09.566Z,9.07
2022-11-24T14:52:36.569Z,9.05
2022-11-24T14:55:21.767Z,9.00
2022-11-24T14:57:49.260Z,8.93
2022-11-24T15:00:18.127Z,8.88
2022-11-24T15:02:48.472Z,8.83
2022-11-24T15:05:16.411Z,8.79
2022-11-24T15:07:46.437Z,8.71
2022-11-24T15:10:33.769Z,8.68
2022-11-24T15:13:03.217Z,8.63
2022-11-24T15:15:33.603Z,8.60
2022-11-24T15:18:01.906Z,8.60
2022-11-24T15:20:41.552Z,8.56
2022-11-24T15:23:31.096Z,8.50
2022-11-24T15:26:17.984Z,8.49
2022-11-24T15:28:46.845Z,8.47
2022-11-24T15:31:14.267Z,8.41
2022-11-24T15:33:42.221Z,8.36
2022-11-24T15:36:08.864Z,8.32
2022-11-24T15:38:35.340Z,8.29
2022-11-24T15:41:01.999Z,8.26
2022-11-24T15:43:38.329Z,8.23
2022-11-24T15:46:06.076Z,8.22
2022-11-24T15:48:33.813Z,8.18
2022-11-24T15:51:03.054Z,8.14
2022-11-24T15:53:32.646Z,8.10
2022-11-24T15:56:01.417Z,8.08
2022-11-24T15:58:28.006Z,8.01
2022-11-24T16:00:54.884Z,7.99
2022-11-24T16:03:46.258Z,7.95
2022-11-24T16:06:13.110Z,7.92
2022-11-24T16:08:39.756Z,7.89
2022-11-24T16:11:06.469Z,7.87
2022-11-24T16:13:33.040Z,7.80
2022-11-24T16:15:59.817Z,7.80
2022-11-24T16:18:26.425Z,7.77
2022-11-24T16:20:52.943Z,7.75
2022-11-24T16:23:19.546Z,7.69
2022-11-24T16:25:46.205Z,7.66
2022-11-24T16:28:12.716Z,7.66
2022-11-24T16:30:39.249Z,7.64
2022-11-24T16:33:06.740Z,7.64
2022-11-24T16:35:33.949Z,7.60
2022-11-24T16:38:00.552Z,7.57
2022-11-24T16:40:39.375Z,7.57
2022-11-24T16:43:06.336Z,7.51
2022-11-24T16:45:33.032Z,7.49
2022-11-24T16:48:01.787Z,7.50
2022-11-24T16:50:29.426Z,7.48
2022-11-24T16:52:56.407Z,7.47
2022-11-24T16:55:22.981Z,7.49
2022-11-24T16:57:49.636Z,7.50
2022-11-24T17:00:16.584Z,7.51
2022-11-24T17:02:43.187Z,7.45
2022-11-24T17:05:09.977Z,7.43
2022-11-24T17:07:36.625Z,7.42
2022-11-24T17:10:03.524Z,7.42
2022-11-24T17:12:30.074Z,7.43
2022-11-24T17:15:24.626Z,7.43
2022-11-24T17:18:08.489Z,7.41
2022-11-24T17:20:31.462Z,7.42
2022-11-24T17:22:58.104Z,7.42
2022-11-24T17:25:24.634Z,7.41
2022-11-24T17:27:53.001Z,7.40
2022-11-24T17:30:19.688Z,7.39
2022-11-24T17:32:46.361Z,7.40
2022-11-24T17:35:13.235Z,7.39
2022-11-24T17:37:39.800Z,7.42
2022-11-24T17:40:27.264Z,7.46
2022-11-24T17:42:53.636Z,7.54
2022-11-24T17:45:20.329Z,7.62
2022-11-24T17:47:46.911Z,7.65
2022-11-24T17:50:13.465Z,7.66
2022-11-24T17:52:40.058Z,7.67
2022-11-24T17:55:06.880Z,7.69
2022-11-24T17:57:33.405Z,7.71
2022-11-24T17:59:59.993Z,7.68
2022-11-24T18:02:26.648Z,7.67
2022-11-24T18:04:53.272Z,7.64
2022-11-24T18:07:19.914Z,7.64
2022-11-24T18:09:46.800Z,7.62
2022-11-24T18:12:13.497Z,7.64
2022-11-24T18:14:40.047Z,7.69
2022-11-24T18:17:06.898Z,7.73
2022-11-24T18:19:33.565Z,7.73
2022-11-24T18:22:00.086Z,7.77
2022-11-24T18:24:26.602Z,7.83
2022-11-24T18:26:53.193Z,7.84
2022-11-24T18:29:19.742Z,7.81
2022-11-24T18:31:46.499Z,7.85
2022-11-24T18:34:13.237Z,7.83
2022-11-24T18:36:39.817Z,7.84
2022-11-24T18:39:08.214Z,7.89
2022-11-24T18:41:35.850Z,7.89
2022-11-24T18:44:03.319Z,7.90
2022-11-24T18:46:30.121Z,7.88
2022-11-24T18:48:56.778Z,7.88
2022-11-24T18:51:23.624Z,7.89
2022-11-24T18:53:54.430Z,7.93
2022-11-24T18:56:21.307Z,7.92
2022-11-24T18:58:47.849Z,7.87
2022-11-24T19:01:16.761Z,7.83
2022-11-24T19:03:49.000Z,7.86
2022-11-24T19:06:23.907Z,7.86
2022-11-24T19:08:53.861Z,7.86
2022-11-24T19:11:23.061Z,7.88
2022-11-24T19:13:50.493Z,7.88
2022-11-24T19:16:19.663Z,7.88
2022-11-24T19:18:53.714Z,7.89
2022-11-24T19:21:22.021Z,7.89
2022-11-24T19:23:49.457Z,7.87
2022-11-24T19:26:16.135Z,7.86
2022-11-24T19:28:42.797Z,7.83
2022-11-24T19:31:13.815Z,7.86
2022-11-24T19:33:41.743Z,7.85
2022-11-24T19:36:12.293Z,7.84
2022-11-24T19:38:39.571Z,7.83
2022-11-24T19:41:12.080Z,7.84
2022-11-24T19:43:39.800Z,7.80
2022-11-24T19:46:08.805Z,7.82
2022-11-24T19:48:37.826Z,7.80
2022-11-24T19:51:10.303Z,7.79
2022-11-24T19:53:37.963Z,7.78
2022-11-24T19:56:06.016Z,7.77
2022-11-24T19:58:32.775Z,7.80
2022-11-24T20:01:11.166Z,7.81
2022-11-24T20:03:38.956Z,7.79
2022-11-24T20:06:07.446Z,7.78
2022-11-24T20:11:28.968Z,7.75
2022-11-24T20:13:56.631Z,7.77
2022-11-24T20:16:28.250Z,7.78
2022-11-24T20:18:57.176Z,7.81
2022-11-24T20:21:28.547Z,7.80
2022-11-24T20:24:07.760Z,7.81
2022-11-24T20:26:37.938Z,7.79
2022-11-24T20:29:06.756Z,7.80
2022-11-24T20:31:38.646Z,7.78
2022-11-24T20:34:06.652Z,7.77
2022-11-24T20:36:34.906Z,7.79
2022-11-24T20:39:10.470Z,7.75
2022-11-24T20:41:38.974Z,7.77
2022-11-24T20:44:08.503Z,7.81
2022-11-24T20:46:37.711Z,7.81
2022-11-24T20:49:05.731Z,7.80
2022-11-24T20:51:34.790Z,7.79
2022-11-24T20:54:04.052Z,7.81
2022-11-24T20:56:33.119Z,7.84
2022-11-24T20:59:00.239Z,7.83
2022-11-24T21:01:30.491Z,7.86
2022-11-24T21:03:59.086Z,7.89
2022-11-24T21:06:28.100Z,7.89
2022-11-24T21:09:00.467Z,7.88
2022-11-24T21:11:30.277Z,7.91
2022-11-24T21:13:57.289Z,7.94
2022-11-24T21:16:29.660Z,7.95
2022-11-24T21:18:59.379Z,7.98
2022-11-24T21:24:26.152Z,8.00
2022-11-24T21:26:53.129Z,8.00
2022-11-24T21:29:23.389Z,8.01
2022-11-24T21:31:50.295Z,8.01
2022-11-24T21:34:19.019Z,8.00
2022-11-24T21:36:46.016Z,8.02
2022-11-24T21:39:14.654Z,8.04
2022-11-24T21:41:42.100Z,8.05
2022-11-24T21:44:10.403Z,8.05
2022-11-24T21:46:44.118Z,8.04
2022-11-24T21:49:14.701Z,8.04
2022-11-24T21:51:41.392Z,8.01
2022-11-24T21:54:08.320Z,8.01
2022-11-24T21:56:37.686Z,8.02
2022-11-24T21:59:04.473Z,8.04
2022-11-24T22:01:31.132Z,8.05
2022-11-24T22:03:57.870Z,8.04
2022-11-24T22:06:24.660Z,8.06
2022-11-24T22:08:51.403Z,8.06
2022-11-24T22:11:21.626Z,8.07
2022-11-24T22:13:48.957Z,8.05
2022-11-24T22:16:18.624Z,8.07
2022-11-24T22:18:45.812Z,8.08
2022-11-24T22:21:15.741Z,8.11
2022-11-24T22:23:43.301Z,8.10
2022-11-24T22:26:15.537Z,8.10
2022-11-24T22:28:43.153Z,8.11
2022-11-24T22:31:12.991Z,8.10
2022-11-24T22:33:39.790Z,8.08
2022-11-24T22:36:06.930Z,8.09
2022-11-24T22:38:34.759Z,8.09
2022-11-24T22:41:04.652Z,8.09
2022-11-24T22:43:34.322Z,8.10
2022-11-24T22:46:06.907Z,8.13
2022-11-24T22:48:34.058Z,8.13
2022-11-24T22:51:03.836Z,8.12
2022-11-24T22:53:30.462Z,8.10
2022-11-24T22:56:01.407Z,8.10
2022-11-24T22:58:28.016Z,8.10
2022-11-24T23:00:55.642Z,8.11
2022-11-24T23:03:22.542Z,8.09
2022-11-24T23:05:49.333Z,8.11
2022-11-24T23:08:15.983Z,8.14
2022-11-24T23:10:42.618Z,8.16
2022-11-24T23:13:10.654Z,8.17
2022-11-24T23:15:37.246Z,8.15
2022-11-24T23:18:05.304Z,8.16
2022-11-24T23:20:31.934Z,8.17
2022-11-24T23:22:58.607Z,8.15
2022-11-24T23:25:25.216Z,8.16
2022-11-24T23:27:51.808Z,8.17
2022-11-24T23:30:22.810Z,8.18
2022-11-24T23:32:49.359Z,8.20
2022-11-24T23:35:15.976Z,8.19
2022-11-24T23:38:06.495Z,8.19
2022-11-24T23:40:31.433Z,8.19
2022-11-24T23:42:57.970Z,8.19
2022-11-24T23:45:24.722Z,8.21
2022-11-24T23:47:53.988Z,8.23
2022-11-24T23:50:22.574Z,8.22
2022-11-24T23:53:07.940Z,8.22
2022-11-24T23:56:05.368Z,8.21
2022-11-24T23:58:34.823Z,8.18
